N328AP PANC-PANC
Flight info
| Callsign | N328AP |
|---|---|
| Flight time | N/A |
| Altitude | 3000 |
| Route | PANC |
| Aircraft | C172/L-SFG/C |
Departure
| Time | 2026-05-08 02:04 |
|---|---|
| Airport | Ted Stevens Anchorage International Airport (PANC) |
Arrival
| Time | N/A |
|---|---|
| Airport | Ted Stevens Anchorage International Airport (PANC) |
| Time | Latitude | Longitude | Altitude | Speed | Heading |
|---|---|---|---|---|---|
| 2026-05-08 01:55 | 61.17394 | -149.99033 | 113 ft | 0 kts | 71° |
| 2026-05-08 01:58 | 61.17396 | -149.99020 | 113 ft | 2 kts | 69° |
| 2026-05-08 01:58 | 61.17400 | -149.98932 | 113 ft | 9 kts | 99° |
| 2026-05-08 01:58 | 61.17353 | -149.98845 | 113 ft | 9 kts | 157° |
| 2026-05-08 01:59 | 61.17283 | -149.98795 | 113 ft | 12 kts | 161° |
| 2026-05-08 01:59 | 61.17191 | -149.98734 | 113 ft | 15 kts | 158° |
| 2026-05-08 01:59 | 61.17088 | -149.98671 | 113 ft | 16 kts | 163° |
| 2026-05-08 01:59 | 61.16977 | -149.98590 | 113 ft | 17 kts | 159° |
| 2026-05-08 02:00 | 61.16881 | -149.98517 | 113 ft | 4 kts | 160° |
| 2026-05-08 02:00 | 61.16880 | -149.98517 | 113 ft | 0 kts | 161° |
| 2026-05-08 02:02 | 61.16874 | -149.98512 | 113 ft | 0 kts | 160° |
| 2026-05-08 02:02 | 61.16840 | -149.98491 | 113 ft | 11 kts | 180° |
| 2026-05-08 02:03 | 61.16789 | -149.98619 | 113 ft | 13 kts | 262° |
| 2026-05-08 02:03 | 61.16782 | -149.99206 | 118 ft | 62 kts | 269° |
| 2026-05-08 02:03 | 61.16767 | -150.00140 | 259 ft | 70 kts | 271° |
| 2026-05-08 02:03 | 61.16774 | -150.01181 | 384 ft | 73 kts | 291° |
| 2026-05-08 02:04 | 61.16714 | -150.02284 | 461 ft | 83 kts | 294° |
| 2026-05-08 02:04 | 61.16725 | -150.03461 | 643 ft | 82 kts | 268° |
| 2026-05-08 02:04 | 61.16705 | -150.04625 | 834 ft | 79 kts | 270° |
| 2026-05-08 02:04 | 61.16846 | -150.05710 | 996 ft | 79 kts | 305° |
| 2026-05-08 02:05 | 61.17293 | -150.06293 | 1154 ft | 78 kts | 351° |
| 2026-05-08 02:05 | 61.17820 | -150.06203 | 1346 ft | 74 kts | 5° |
| 2026-05-08 02:05 | 61.18357 | -150.06157 | 1489 ft | 79 kts | 359° |
| 2026-05-08 02:05 | 61.18857 | -150.05771 | 1608 ft | 80 kts | 56° |
| 2026-05-08 02:06 | 61.19017 | -150.04622 | 1641 ft | 90 kts | 56° |
| 2026-05-08 02:06 | 61.19284 | -150.03536 | 1805 ft | 84 kts | 83° |
| 2026-05-08 02:06 | 61.19263 | -150.02327 | 1914 ft | 84 kts | 95° |
| 2026-05-08 02:06 | 61.19241 | -150.01121 | 2060 ft | 82 kts | 90° |
| 2026-05-08 02:07 | 61.19289 | -149.99860 | 2131 ft | 94 kts | 85° |
| 2026-05-08 02:07 | 61.19382 | -149.98502 | 2246 ft | 97 kts | 82° |
| 2026-05-08 02:07 | 61.19525 | -149.97131 | 2374 ft | 98 kts | 77° |
| 2026-05-08 02:07 | 61.19730 | -149.95811 | 2520 ft | 98 kts | 73° |
| 2026-05-08 02:08 | 61.19997 | -149.94472 | 2627 ft | 101 kts | 66° |
| 2026-05-08 02:08 | 61.20355 | -149.93204 | 2719 ft | 105 kts | 58° |
| 2026-05-08 02:08 | 61.20969 | -149.92360 | 2799 ft | 111 kts | 23° |
| 2026-05-08 02:08 | 61.21701 | -149.91789 | 2879 ft | 112 kts | 25° |
| 2026-05-08 02:09 | 61.22466 | -149.91385 | 2898 ft | 120 kts | 357° |
| 2026-05-08 02:09 | 61.23163 | -149.92290 | 2864 ft | 124 kts | 299° |
| 2026-05-08 02:09 | 61.23397 | -149.93996 | 2790 ft | 124 kts | 280° |
| 2026-05-08 02:09 | 61.23640 | -149.95700 | 2721 ft | 123 kts | 286° |
| 2026-05-08 02:10 | 61.23940 | -149.97388 | 2612 ft | 125 kts | 288° |
| 2026-05-08 02:10 | 61.24190 | -149.99087 | 2481 ft | 124 kts | 283° |
| 2026-05-08 02:10 | 61.24400 | -150.00794 | 2408 ft | 119 kts | 282° |
| 2026-05-08 02:10 | 61.24612 | -150.02451 | 2339 ft | 119 kts | 284° |
| 2026-05-08 02:11 | 61.24828 | -150.04102 | 2277 ft | 117 kts | 281° |
| 2026-05-08 02:11 | 61.25002 | -150.05747 | 2232 ft | 116 kts | 279° |
| 2026-05-08 02:11 | 61.25156 | -150.07388 | 2202 ft | 114 kts | 278° |
| 2026-05-08 02:11 | 61.25299 | -150.08972 | 2204 ft | 110 kts | 277° |
| 2026-05-08 02:12 | 61.25421 | -150.10539 | 2203 ft | 109 kts | 276° |
| 2026-05-08 02:12 | 61.25541 | -150.12062 | 2211 ft | 108 kts | 276° |
| 2026-05-08 02:12 | 61.25651 | -150.13621 | 2224 ft | 109 kts | 274° |
| 2026-05-08 02:12 | 61.25744 | -150.15196 | 2225 ft | 109 kts | 273° |
| 2026-05-08 02:13 | 61.25811 | -150.16763 | 2234 ft | 109 kts | 270° |
| 2026-05-08 02:13 | 61.25858 | -150.18352 | 2236 ft | 110 kts | 271° |
| 2026-05-08 02:13 | 61.25904 | -150.19934 | 2256 ft | 109 kts | 269° |
| 2026-05-08 02:13 | 61.25869 | -150.21468 | 2275 ft | 107 kts | 255° |
| 2026-05-08 02:14 | 61.25800 | -150.23003 | 2307 ft | 107 kts | 267° |
| 2026-05-08 02:14 | 61.25833 | -150.24593 | 2384 ft | 112 kts | 275° |
| 2026-05-08 02:14 | 61.26218 | -150.26012 | 2443 ft | 118 kts | 316° |
| 2026-05-08 02:14 | 61.26978 | -150.26692 | 2465 ft | 122 kts | 349° |
| 2026-05-08 02:15 | 61.27834 | -150.26950 | 2465 ft | 125 kts | 355° |
| 2026-05-08 02:15 | 61.28695 | -150.27165 | 2468 ft | 126 kts | 353° |
| 2026-05-08 02:15 | 61.29569 | -150.27374 | 2469 ft | 127 kts | 354° |
| 2026-05-08 02:15 | 61.29696 | -150.27405 | 2469 ft | 127 kts | 354° |